sensor_id;sensor_type;location;lat;lon;timestamp;pressure;altitude;pressure_sealevel;temperature;humidity
69411;BME280;56604;48.652;9.194;2023-03-30T00:02:26;95986.59;;;14.35;59.24
69411;BME280;56604;48.652;9.194;2023-03-30T00:04:55;95987.38;;;14.36;60.46
69411;BME280;56604;48.652;9.194;2023-03-30T00:07:21;95997.56;;;14.18;61.39
69411;BME280;56604;48.652;9.194;2023-03-30T00:09:46;96000.22;;;14.18;60.52
69411;BME280;56604;48.652;9.194;2023-03-30T00:12:13;95987.31;;;14.12;60.65
69411;BME280;56604;48.652;9.194;2023-03-30T00:14:44;95983.97;;;14.01;60.89
69411;BME280;56604;48.652;9.194;2023-03-30T00:17:10;95977.84;;;14.06;60.25
69411;BME280;56604;48.652;9.194;2023-03-30T00:19:36;95974.16;;;14.07;60.17
69411;BME280;56604;48.652;9.194;2023-03-30T00:22:07;95971.28;;;14.03;60.12
69411;BME280;56604;48.652;9.194;2023-03-30T00:24:35;95969.41;;;14.04;60.17
69411;BME280;56604;48.652;9.194;2023-03-30T00:27:02;95970.97;;;14.05;60.77
69411;BME280;56604;48.652;9.194;2023-03-30T00:29:28;95963.66;;;13.97;60.90
69411;BME280;56604;48.652;9.194;2023-03-30T00:31:53;95961.53;;;13.99;60.62
69411;BME280;56604;48.652;9.194;2023-03-30T00:34:19;95952.59;;;13.94;61.53
69411;BME280;56604;48.652;9.194;2023-03-30T00:36:44;95960.50;;;13.94;60.51
69411;BME280;56604;48.652;9.194;2023-03-30T00:39:11;95954.72;;;13.92;61.29
69411;BME280;56604;48.652;9.194;2023-03-30T00:41:36;95951.47;;;14.01;60.50
69411;BME280;56604;48.652;9.194;2023-03-30T00:44:07;95942.50;;;13.97;60.99
69411;BME280;56604;48.652;9.194;2023-03-30T00:46:51;95944.13;;;13.92;61.23
69411;BME280;56604;48.652;9.194;2023-03-30T00:49:16;95942.00;;;13.94;61.28
69411;BME280;56604;48.652;9.194;2023-03-30T00:51:42;95937.22;;;13.97;61.66
69411;BME280;56604;48.652;9.194;2023-03-30T00:54:11;95932.50;;;13.93;61.44
69411;BME280;56604;48.652;9.194;2023-03-30T00:56:39;95926.16;;;13.94;61.00
69411;BME280;56604;48.652;9.194;2023-03-30T00:59:04;95933.47;;;14.03;61.31
69411;BME280;56604;48.652;9.194;2023-03-30T01:01:30;95924.28;;;13.95;61.76
69411;BME280;56604;48.652;9.194;2023-03-30T01:04:01;95908.19;;;13.91;61.30
69411;BME280;56604;48.652;9.194;2023-03-30T01:06:27;95909.31;;;13.85;61.72
69411;BME280;56604;48.652;9.194;2023-03-30T01:08:54;95919.31;;;13.88;62.18
69411;BME280;56604;48.652;9.194;2023-03-30T01:11:22;95917.66;;;13.98;61.79
69411;BME280;56604;48.652;9.194;2023-03-30T01:13:50;95918.75;;;13.91;62.09
69411;BME280;56604;48.652;9.194;2023-03-30T01:21:55;95910.91;;;13.86;62.68
69411;BME280;56604;48.652;9.194;2023-03-30T01:41:34;95963.41;;;13.59;68.04
69411;BME280;56604;48.652;9.194;2023-03-30T01:46:32;95954.72;;;13.53;68.70
69411;BME280;56604;48.652;9.194;2023-03-30T01:49:29;95943.41;;;13.47;71.06
69411;BME280;56604;48.652;9.194;2023-03-30T01:52:15;95942.91;;;13.40;72.28
69411;BME280;56604;48.652;9.194;2023-03-30T01:54:46;95927.69;;;13.22;74.57
69411;BME280;56604;48.652;9.194;2023-03-30T01:57:17;95944.06;;;13.19;76.29
69411;BME280;56604;48.652;9.194;2023-03-30T02:00:05;95945.72;;;13.10;77.47
69411;BME280;56604;48.652;9.194;2023-03-30T02:02:38;95951.88;;;12.90;79.44
69411;BME280;56604;48.652;9.194;2023-03-30T02:05:06;95956.63;;;12.82;79.92
69411;BME280;56604;48.652;9.194;2023-03-30T02:07:33;95948.56;;;12.64;80.72
69411;BME280;56604;48.652;9.194;2023-03-30T02:10:03;95949.06;;;12.60;80.79
69411;BME280;56604;48.652;9.194;2023-03-30T02:12:31;95944.31;;;12.63;80.08
69411;BME280;56604;48.652;9.194;2023-03-30T02:15:00;95947.50;;;12.49;80.16
69411;BME280;56604;48.652;9.194;2023-03-30T02:17:29;95942.50;;;12.53;79.96
69411;BME280;56604;48.652;9.194;2023-03-30T02:19:55;95943.81;;;12.55;79.70
69411;BME280;56604;48.652;9.194;2023-03-30T02:22:23;95945.38;;;12.62;78.67
69411;BME280;56604;48.652;9.194;2023-03-30T02:24:53;95952.53;;;12.56;78.32
69411;BME280;56604;48.652;9.194;2023-03-30T02:27:18;95958.81;;;12.60;78.00
69411;BME280;56604;48.652;9.194;2023-03-30T02:29:45;95951.97;;;12.59;78.18
69411;BME280;56604;48.652;9.194;2023-03-30T02:32:17;95950.66;;;12.62;77.79
69411;BME280;56604;48.652;9.194;2023-03-30T02:37:47;95962.28;;;12.55;77.67
69411;BME280;56604;48.652;9.194;2023-03-30T02:43:04;95959.59;;;12.60;76.95
69411;BME280;56604;48.652;9.194;2023-03-30T02:48:49;95961.69;;;12.69;77.08
69411;BME280;56604;48.652;9.194;2023-03-30T02:51:35;95959.34;;;12.72;76.54
69411;BME280;56604;48.652;9.194;2023-03-30T02:54:29;95949.84;;;12.66;76.94
69411;BME280;56604;48.652;9.194;2023-03-30T02:57:03;95943.75;;;12.71;77.73
69411;BME280;56604;48.652;9.194;2023-03-30T02:59:54;95941.44;;;12.59;79.13
69411;BME280;56604;48.652;9.194;2023-03-30T03:02:27;95944.38;;;12.52;80.48
69411;BME280;56604;48.652;9.194;2023-03-30T03:04:56;95938.31;;;12.47;81.74
69411;BME280;56604;48.652;9.194;2023-03-30T03:07:23;95932.50;;;12.40;82.27
69411;BME280;56604;48.652;9.194;2023-03-30T03:09:49;95923.84;;;12.24;83.09
69411;BME280;56604;48.652;9.194;2023-03-30T03:12:14;95911.72;;;12.23;84.39
69411;BME280;56604;48.652;9.194;2023-03-30T03:14:40;95898.03;;;12.21;84.34
69411;BME280;56604;48.652;9.194;2023-03-30T03:17:07;95888.31;;;12.06;85.06
69411;BME280;56604;48.652;9.194;2023-03-30T03:19:32;95883.56;;;12.13;84.78
69411;BME280;56604;48.652;9.194;2023-03-30T03:21:57;95884.06;;;12.15;85.07
69411;BME280;56604;48.652;9.194;2023-03-30T03:24:23;95881.47;;;12.10;85.43
69411;BME280;56604;48.652;9.194;2023-03-30T03:26:48;95867.22;;;12.11;85.41
69411;BME280;56604;48.652;9.194;2023-03-30T03:29:13;95859.34;;;12.01;85.63
69411;BME280;56604;48.652;9.194;2023-03-30T03:31:39;95859.63;;;11.99;86.21
69411;BME280;56604;48.652;9.194;2023-03-30T03:34:05;95852.25;;;12.01;85.65
69411;BME280;56604;48.652;9.194;2023-03-30T03:36:30;95853.81;;;11.97;86.08
69411;BME280;56604;48.652;9.194;2023-03-30T03:38:56;95864.41;;;11.87;86.76
69411;BME280;56604;48.652;9.194;2023-03-30T03:41:21;95865.69;;;11.95;85.96
69411;BME280;56604;48.652;9.194;2023-03-30T03:43:47;95859.09;;;12.02;86.29
69411;BME280;56604;48.652;9.194;2023-03-30T03:46:13;95861.44;;;12.04;85.69
69411;BME280;56604;48.652;9.194;2023-03-30T03:48:38;95844.31;;;12.11;85.31
69411;BME280;56604;48.652;9.194;2023-03-30T03:51:04;95844.81;;;12.13;84.78
69411;BME280;56604;48.652;9.194;2023-03-30T03:53:30;95845.31;;;12.21;84.30
69411;BME280;56604;48.652;9.194;2023-03-30T03:55:56;95844.53;;;12.25;84.04
69411;BME280;56604;48.652;9.194;2023-03-30T03:58:22;95839.50;;;12.29;84.29
69411;BME280;56604;48.652;9.194;2023-03-30T04:00:47;95841.56;;;12.42;83.30
69411;BME280;56604;48.652;9.194;2023-03-30T04:03:13;95843.41;;;12.42;82.96
69411;BME280;56604;48.652;9.194;2023-03-30T04:05:39;95833.88;;;12.51;82.61
69411;BME280;56604;48.652;9.194;2023-03-30T04:08:05;95833.03;;;12.60;81.38
69411;BME280;56604;48.652;9.194;2023-03-30T04:10:35;95827.47;;;12.67;81.07
69411;BME280;56604;48.652;9.194;2023-03-30T04:13:00;95811.38;;;12.69;80.92
69411;BME280;56604;48.652;9.194;2023-03-30T04:15:26;95802.41;;;12.70;81.29
69411;BME280;56604;48.652;9.194;2023-03-30T04:17:51;95787.13;;;12.67;81.21
69411;BME280;56604;48.652;9.194;2023-03-30T04:20:23;95779.22;;;12.67;81.53
69411;BME280;56604;48.652;9.194;2023-03-30T04:22:49;95779.47;;;12.70;81.10
69411;BME280;56604;48.652;9.194;2023-03-30T04:25:18;95777.63;;;12.66;81.38
69411;BME280;56604;48.652;9.194;2023-03-30T04:27:47;95777.63;;;12.66;81.21
69411;BME280;56604;48.652;9.194;2023-03-30T04:30:16;95764.44;;;12.66;81.20
69411;BME280;56604;48.652;9.194;2023-03-30T04:32:43;95761.56;;;12.62;81.21
69411;BME280;56604;48.652;9.194;2023-03-30T04:35:09;95763.41;;;12.67;81.25
69411;BME280;56604;48.652;9.194;2023-03-30T04:37:35;95759.69;;;12.68;81.20
69411;BME280;56604;48.652;9.194;2023-03-30T04:40:03;95756.03;;;12.64;81.79
69411;BME280;56604;48.652;9.194;2023-03-30T04:42:32;95761.25;;;12.69;80.92
69411;BME280;56604;48.652;9.194;2023-03-30T04:45:06;95761.78;;;12.71;80.93
69411;BME280;56604;48.652;9.194;2023-03-30T04:47:32;95758.03;;;12.77;80.63
69411;BME280;56604;48.652;9.194;2023-03-30T04:49:58;95758.22;;;12.91;79.68
69411;BME280;56604;48.652;9.194;2023-03-30T04:52:23;95763.75;;;12.89;79.80
69411;BME280;56604;48.652;9.194;2023-03-30T04:54:48;95762.69;;;12.90;79.71
69411;BME280;56604;48.652;9.194;2023-03-30T04:57:15;95766.16;;;12.86;80.52
69411;BME280;56604;48.652;9.194;2023-03-30T04:59:41;95761.66;;;12.86;80.66
69411;BME280;56604;48.652;9.194;2023-03-30T05:02:07;95759.03;;;12.86;80.74
69411;BME280;56604;48.652;9.194;2023-03-30T05:04:33;95767.25;;;12.79;81.03
69411;BME280;56604;48.652;9.194;2023-03-30T05:06:59;95758.06;;;12.72;81.26
69411;BME280;56604;48.652;9.194;2023-03-30T05:09:24;95757.06;;;12.68;81.49
69411;BME280;56604;48.652;9.194;2023-03-30T05:11:49;95740.16;;;12.69;81.25
69411;BME280;56604;48.652;9.194;2023-03-30T05:14:15;95733.88;;;12.65;81.37
69411;BME280;56604;48.652;9.194;2023-03-30T05:16:40;95739.69;;;12.62;81.65
69411;BME280;56604;48.652;9.194;2023-03-30T05:19:06;95732.31;;;12.64;81.12
69411;BME280;56604;48.652;9.194;2023-03-30T05:21:31;95739.66;;;12.67;81.61
69411;BME280;56604;48.652;9.194;2023-03-30T05:23:56;95733.31;;;12.68;81.22
69411;BME280;56604;48.652;9.194;2023-03-30T05:26:22;95737.03;;;12.67;81.53
69411;BME280;56604;48.652;9.194;2023-03-30T05:28:48;95742.75;;;12.74;80.86
69411;BME280;56604;48.652;9.194;2023-03-30T05:31:14;95735.13;;;12.72;80.95
69411;BME280;56604;48.652;9.194;2023-03-30T05:33:39;95723.00;;;12.71;81.07
69411;BME280;56604;48.652;9.194;2023-03-30T05:36:05;95724.03;;;12.75;80.36
69411;BME280;56604;48.652;9.194;2023-03-30T05:38:31;95723.22;;;12.75;80.79
69411;BME280;56604;48.652;9.194;2023-03-30T05:40:56;95720.59;;;12.75;80.38
69411;BME280;56604;48.652;9.194;2023-03-30T05:43:22;95728.78;;;12.73;80.41
69411;BME280;56604;48.652;9.194;2023-03-30T05:45:47;95728.56;;;12.70;80.44
69411;BME280;56604;48.652;9.194;2023-03-30T05:48:13;95731.19;;;12.70;80.47
69411;BME280;56604;48.652;9.194;2023-03-30T05:50:38;95723.78;;;12.72;80.08
69411;BME280;56604;48.652;9.194;2023-03-30T05:53:04;95729.34;;;12.70;80.10
69411;BME280;56604;48.652;9.194;2023-03-30T05:55:29;95732.75;;;12.71;80.58
69411;BME280;56604;48.652;9.194;2023-03-30T05:57:54;95728.44;;;12.85;79.87
69411;BME280;56604;48.652;9.194;2023-03-30T06:00:21;95733.16;;;12.88;79.47
69411;BME280;56604;48.652;9.194;2023-03-30T06:02:47;95750.03;;;12.92;79.33
69411;BME280;56604;48.652;9.194;2023-03-30T06:05:13;95757.88;;;12.97;80.06
69411;BME280;56604;48.652;9.194;2023-03-30T06:07:38;95759.31;;;12.85;80.52
69411;BME280;56604;48.652;9.194;2023-03-30T06:10:05;95767.50;;;12.83;80.08
69411;BME280;56604;48.652;9.194;2023-03-30T06:12:32;95777.25;;;12.82;80.62
69411;BME280;56604;48.652;9.194;2023-03-30T06:14:58;95791.50;;;12.87;80.22
69411;BME280;56604;48.652;9.194;2023-03-30T06:17:27;95806.25;;;12.88;80.21
69411;BME280;56604;48.652;9.194;2023-03-30T06:19:52;95809.22;;;12.76;81.68
69411;BME280;56604;48.652;9.194;2023-03-30T06:22:18;95795.84;;;12.62;82.39
69411;BME280;56604;48.652;9.194;2023-03-30T06:24:43;95805.63;;;12.56;83.14
69411;BME280;56604;48.652;9.194;2023-03-30T06:27:09;95802.66;;;12.68;82.89
69411;BME280;56604;48.652;9.194;2023-03-30T06:29:34;95798.97;;;12.69;83.15
69411;BME280;56604;48.652;9.194;2023-03-30T06:32:01;95805.59;;;12.67;82.78
69411;BME280;56604;48.652;9.194;2023-03-30T06:34:27;95801.38;;;12.66;82.77
69411;BME280;56604;48.652;9.194;2023-03-30T06:36:53;95815.63;;;12.65;82.52
69411;BME280;56604;48.652;9.194;2023-03-30T06:39:18;95807.41;;;12.66;82.61
69411;BME280;56604;48.652;9.194;2023-03-30T06:41:44;95815.06;;;12.73;81.42
69411;BME280;56604;48.652;9.194;2023-03-30T06:44:09;95809.22;;;12.76;81.42
69411;BME280;56604;48.652;9.194;2023-03-30T06:46:38;95799.22;;;12.73;81.36
69411;BME280;56604;48.652;9.194;2023-03-30T06:49:04;95802.81;;;12.92;80.13
69411;BME280;56604;48.652;9.194;2023-03-30T06:51:29;95802.13;;;13.11;79.92
69411;BME280;56604;48.652;9.194;2023-03-30T06:53:55;95814.63;;;13.34;78.23
69411;BME280;56604;48.652;9.194;2023-03-30T06:56:20;95821.78;;;13.63;76.38
69411;BME280;56604;48.652;9.194;2023-03-30T06:58:46;95833.59;;;14.00;75.12
69411;BME280;56604;48.652;9.194;2023-03-30T07:01:13;95836.69;;;14.55;73.67
69411;BME280;56604;48.652;9.194;2023-03-30T07:03:43;95845.47;;;14.74;72.44
69411;BME280;56604;48.652;9.194;2023-03-30T07:06:08;95852.28;;;14.32;72.98
69411;BME280;56604;48.652;9.194;2023-03-30T07:08:35;95851.22;;;14.09;73.86
69411;BME280;56604;48.652;9.194;2023-03-30T07:11:04;95873.34;;;13.89;74.65
69411;BME280;56604;48.652;9.194;2023-03-30T07:13:31;95889.06;;;13.76;74.67
69411;BME280;56604;48.652;9.194;2023-03-30T07:15:56;95903.38;;;13.69;75.39
69411;BME280;56604;48.652;9.194;2023-03-30T07:18:21;95915.34;;;13.57;76.02
69411;BME280;56604;48.652;9.194;2023-03-30T07:20:47;95899.38;;;13.38;76.83
69411;BME280;56604;48.652;9.194;2023-03-30T07:23:12;95911.19;;;13.45;77.51
69411;BME280;56604;48.652;9.194;2023-03-30T07:25:39;95908.84;;;13.44;78.61
69411;BME280;56604;48.652;9.194;2023-03-30T07:28:06;95923.97;;;13.33;80.50
69411;BME280;56604;48.652;9.194;2023-03-30T07:30:32;95934.53;;;13.23;81.40
69411;BME280;56604;48.652;9.194;2023-03-30T07:32:57;95941.22;;;13.10;82.10
69411;BME280;56604;48.652;9.194;2023-03-30T07:35:23;95941.78;;;13.07;82.50
69411;BME280;56604;48.652;9.194;2023-03-30T07:37:48;95938.59;;;13.05;83.29
69411;BME280;56604;48.652;9.194;2023-03-30T07:40:14;95943.56;;;13.12;83.58
69411;BME280;56604;48.652;9.194;2023-03-30T07:42:40;95931.44;;;13.16;83.78
69411;BME280;56604;48.652;9.194;2023-03-30T07:45:06;95924.19;;;12.87;85.06
69411;BME280;56604;48.652;9.194;2023-03-30T07:47:32;95914.09;;;12.99;85.73
69411;BME280;56604;48.652;9.194;2023-03-30T07:49:57;95910.63;;;13.09;85.64
69411;BME280;56604;48.652;9.194;2023-03-30T07:52:23;95893.31;;;12.82;86.75
69411;BME280;56604;48.652;9.194;2023-03-30T07:54:48;95879.84;;;12.89;86.69
69411;BME280;56604;48.652;9.194;2023-03-30T07:57:13;95881.66;;;12.94;87.36
69411;BME280;56604;48.652;9.194;2023-03-30T07:59:39;95910.44;;;12.90;87.66
69411;BME280;56604;48.652;9.194;2023-03-30T08:02:05;95917.81;;;12.98;88.75
69411;BME280;56604;48.652;9.194;2023-03-30T08:04:31;95926.25;;;12.95;88.94
69411;BME280;56604;48.652;9.194;2023-03-30T08:06:57;95923.06;;;12.98;88.53
69411;BME280;56604;48.652;9.194;2023-03-30T08:09:22;95920.69;;;12.97;88.66
69411;BME280;56604;48.652;9.194;2023-03-30T08:11:48;95932.56;;;12.99;88.90
69411;BME280;56604;48.652;9.194;2023-03-30T08:14:14;95931.53;;;12.95;89.46
69411;BME280;56604;48.652;9.194;2023-03-30T08:16:39;95939.78;;;12.83;88.98
69411;BME280;56604;48.652;9.194;2023-03-30T08:19:05;95942.66;;;12.87;89.49
69411;BME280;56604;48.652;9.194;2023-03-30T08:21:30;95960.50;;;13.05;89.59
69411;BME280;56604;48.652;9.194;2023-03-30T08:23:56;95963.47;;;12.89;89.76
69411;BME280;56604;48.652;9.194;2023-03-30T08:26:26;95971.94;;;12.86;91.02
69411;BME280;56604;48.652;9.194;2023-03-30T08:28:53;95962.75;;;12.73;91.43
69411;BME280;56604;48.652;9.194;2023-03-30T08:31:18;95981.69;;;12.85;91.27
69411;BME280;56604;48.652;9.194;2023-03-30T08:33:45;96002.78;;;12.90;90.43
69411;BME280;56604;48.652;9.194;2023-03-30T08:36:10;95997.03;;;12.78;91.25
69411;BME280;56604;48.652;9.194;2023-03-30T08:38:39;95997.53;;;12.85;91.07
69411;BME280;56604;48.652;9.194;2023-03-30T08:44:10;96011.78;;;12.84;91.02
69411;BME280;56604;48.652;9.194;2023-03-30T08:46:39;95990.16;;;12.77;90.74
69411;BME280;56604;48.652;9.194;2023-03-30T08:49:11;96005.91;;;12.97;90.94
69411;BME280;56604;48.652;9.194;2023-03-30T08:51:38;96009.59;;;13.07;90.06
69411;BME280;56604;48.652;9.194;2023-03-30T08:54:17;96009.53;;;13.17;89.67
69411;BME280;56604;48.652;9.194;2023-03-30T09:02:14;95979.97;;;13.15;86.97
69411;BME280;56604;48.652;9.194;2023-03-30T09:04:54;95980.78;;;13.15;86.57
69411;BME280;56604;48.652;9.194;2023-03-30T09:09:58;95970.75;;;12.47;86.34
69411;BME280;56604;48.652;9.194;2023-03-30T09:15:16;95983.13;;;12.26;89.70
69411;BME280;56604;48.652;9.194;2023-03-30T09:20:27;95944.97;;;11.93;90.87
69411;BME280;56604;48.652;9.194;2023-03-30T09:22:54;95924.94;;;11.97;89.71
69411;BME280;56604;48.652;9.194;2023-03-30T09:25:42;95921.25;;;11.83;91.14
69411;BME280;56604;48.652;9.194;2023-03-30T09:28:33;95914.44;;;11.87;90.15
69411;BME280;56604;48.652;9.194;2023-03-30T09:31:07;95920.75;;;11.91;90.26
69411;BME280;56604;48.652;9.194;2023-03-30T09:36:32;95930.50;;;11.90;88.64
69411;BME280;56604;48.652;9.194;2023-03-30T09:38:59;95931.25;;;11.70;88.79
69411;BME280;56604;48.652;9.194;2023-03-30T09:42:07;95944.94;;;11.62;89.36
69411;BME280;56604;48.652;9.194;2023-03-30T09:44:33;95948.38;;;11.78;89.57
69411;BME280;56604;48.652;9.194;2023-03-30T09:47:01;95950.25;;;11.98;89.04
69411;BME280;56604;48.652;9.194;2023-03-30T09:49:27;95950.50;;;11.86;88.93
69411;BME280;56604;48.652;9.194;2023-03-30T09:52:00;95948.94;;;11.85;89.58
69411;BME280;56604;48.652;9.194;2023-03-30T09:54:36;95947.63;;;11.93;89.69
69411;BME280;56604;48.652;9.194;2023-03-30T09:57:03;95948.63;;;12.28;88.22
69411;BME280;56604;48.652;9.194;2023-03-30T09:59:36;95957.56;;;12.47;87.01
69411;BME280;56604;48.652;9.194;2023-03-30T10:02:28;95964.31;;;12.79;85.90
69411;BME280;56604;48.652;9.194;2023-03-30T10:04:59;95964.38;;;12.53;86.70
69411;BME280;56604;48.652;9.194;2023-03-30T10:09:57;95955.41;;;12.54;86.97
69411;BME280;56604;48.652;9.194;2023-03-30T10:12:27;95966.81;;;12.24;87.60
69411;BME280;56604;48.652;9.194;2023-03-30T10:15:00;95951.75;;;12.45;88.74
69411;BME280;56604;48.652;9.194;2023-03-30T10:17:26;95957.16;;;12.90;86.87
69411;BME280;56604;48.652;9.194;2023-03-30T10:19:53;95952.59;;;13.00;85.69
69411;BME280;56604;48.652;9.194;2023-03-30T10:22:48;95958.59;;;13.21;85.33
69411;BME280;56604;48.652;9.194;2023-03-30T10:25:26;95955.56;;;12.89;85.72
69411;BME280;56604;48.652;9.194;2023-03-30T10:27:56;95953.81;;;13.28;85.39
69411;BME280;56604;48.652;9.194;2023-03-30T10:30:24;95937.72;;;13.69;83.27
69411;BME280;56604;48.652;9.194;2023-03-30T10:32:52;95950.44;;;13.18;85.62
69411;BME280;56604;48.652;9.194;2023-03-30T10:35:30;95952.16;;;13.77;84.92
69411;BME280;56604;48.652;9.194;2023-03-30T10:37:58;95951.34;;;13.82;82.36
69411;BME280;56604;48.652;9.194;2023-03-30T10:40:37;95950.03;;;13.45;84.23
69411;BME280;56604;48.652;9.194;2023-03-30T10:43:05;95944.09;;;13.14;84.50
69411;BME280;56604;48.652;9.194;2023-03-30T10:45:43;95938.03;;;13.13;85.49
69411;BME280;56604;48.652;9.194;2023-03-30T10:48:25;95942.19;;;13.24;86.08
69411;BME280;56604;48.652;9.194;2023-03-30T10:51:11;95933.91;;;13.46;84.58
69411;BME280;56604;48.652;9.194;2023-03-30T10:56:41;95939.91;;;13.08;85.50
69411;BME280;56604;48.652;9.194;2023-03-30T10:59:31;95947.63;;;12.94;85.21
69411;BME280;56604;48.652;9.194;2023-03-30T11:02:23;95951.53;;;13.07;85.54
69411;BME280;56604;48.652;9.194;2023-03-30T11:04:58;95945.56;;;13.40;85.06
69411;BME280;56604;48.652;9.194;2023-03-30T11:07:36;95949.13;;;13.10;86.81
69411;BME280;56604;48.652;9.194;2023-03-30T11:12:40;95944.72;;;12.95;87.92
69411;BME280;56604;48.652;9.194;2023-03-30T11:15:27;95938.84;;;13.09;87.87
69411;BME280;56604;48.652;9.194;2023-03-30T11:18:03;95939.94;;;13.02;87.79
69411;BME280;56604;48.652;9.194;2023-03-30T11:20:38;95937.75;;;13.15;86.71
69411;BME280;56604;48.652;9.194;2023-03-30T11:26:02;95932.97;;;13.27;86.29
69411;BME280;56604;48.652;9.194;2023-03-30T11:31:26;95910.41;;;13.45;86.30
69411;BME280;56604;48.652;9.194;2023-03-30T11:34:06;95906.56;;;13.22;85.62
69411;BME280;56604;48.652;9.194;2023-03-30T11:36:53;95916.66;;;13.88;85.72
69411;BME280;56604;48.652;9.194;2023-03-30T11:39:23;95930.56;;;14.28;83.15
69411;BME280;56604;48.652;9.194;2023-03-30T11:41:59;95942.03;;;14.48;82.48
69411;BME280;56604;48.652;9.194;2023-03-30T11:44:26;95933.72;;;14.83;81.53
69411;BME280;56604;48.652;9.194;2023-03-30T11:50:08;95899.81;;;14.85;80.07
69411;BME280;56604;48.652;9.194;2023-03-30T11:52:43;95877.53;;;14.44;82.18
69411;BME280;56604;48.652;9.194;2023-03-30T12:00:49;95922.28;;;14.11;82.74
69411;BME280;56604;48.652;9.194;2023-03-30T12:06:02;95934.69;;;14.39;81.91
69411;BME280;56604;48.652;9.194;2023-03-30T12:11:02;95939.81;;;14.60;80.46
69411;BME280;56604;48.652;9.194;2023-03-30T12:13:31;95945.75;;;14.95;79.59
69411;BME280;56604;48.652;9.194;2023-03-30T12:16:01;95939.13;;;14.73;80.14
69411;BME280;56604;48.652;9.194;2023-03-30T12:18:40;95937.63;;;14.38;80.57
69411;BME280;56604;48.652;9.194;2023-03-30T12:26:29;95930.75;;;14.66;77.21
69411;BME280;56604;48.652;9.194;2023-03-30T12:28:58;95931.44;;;14.96;75.73
69411;BME280;56604;48.652;9.194;2023-03-30T12:34:19;95929.72;;;15.05;74.99
69411;BME280;56604;48.652;9.194;2023-03-30T12:36:47;95920.59;;;14.97;74.96
69411;BME280;56604;48.652;9.194;2023-03-30T12:39:29;95914.09;;;15.09;72.51
69411;BME280;56604;48.652;9.194;2023-03-30T12:42:06;95905.53;;;14.93;72.95
69411;BME280;56604;48.652;9.194;2023-03-30T12:47:18;95906.91;;;15.28;70.55
69411;BME280;56604;48.652;9.194;2023-03-30T13:05:43;95881.75;;;15.63;69.36
69411;BME280;56604;48.652;9.194;2023-03-30T13:11:05;95887.91;;;15.78;69.32
69411;BME280;56604;48.652;9.194;2023-03-30T13:13:54;95879.69;;;15.93;66.80
69411;BME280;56604;48.652;9.194;2023-03-30T13:25:23;95838.09;;;16.35;64.39
69411;BME280;56604;48.652;9.194;2023-03-30T13:27:50;95854.50;;;16.37;64.57
69411;BME280;56604;48.652;9.194;2023-03-30T13:30:17;95856.75;;;16.16;65.63
69411;BME280;56604;48.652;9.194;2023-03-30T13:38:05;95859.81;;;16.23;61.94
69411;BME280;56604;48.652;9.194;2023-03-30T13:43:31;95856.56;;;16.12;61.65
69411;BME280;56604;48.652;9.194;2023-03-30T13:51:50;95858.09;;;15.86;61.22
69411;BME280;56604;48.652;9.194;2023-03-30T13:54:28;95868.41;;;16.01;61.42
69411;BME280;56604;48.652;9.194;2023-03-30T13:57:12;95868.72;;;16.00;61.68
69411;BME280;56604;48.652;9.194;2023-03-30T13:59:45;95864.53;;;16.26;60.28
69411;BME280;56604;48.652;9.194;2023-03-30T14:02:14;95867.19;;;16.40;60.68
69411;BME280;56604;48.652;9.194;2023-03-30T14:04:41;95879.94;;;16.38;59.27
69411;BME280;56604;48.652;9.194;2023-03-30T14:07:21;95873.16;;;16.32;59.69
69411;BME280;56604;48.652;9.194;2023-03-30T14:10:04;95875.84;;;16.59;59.33
69411;BME280;56604;48.652;9.194;2023-03-30T14:12:31;95856.66;;;16.35;56.20
69411;BME280;56604;48.652;9.194;2023-03-30T14:14:58;95849.09;;;16.42;58.00
69411;BME280;56604;48.652;9.194;2023-03-30T14:17:24;95856.16;;;16.33;57.01
69411;BME280;56604;48.652;9.194;2023-03-30T14:22:23;95848.31;;;16.14;56.87
69411;BME280;56604;48.652;9.194;2023-03-30T14:24:56;95836.97;;;15.81;57.27
69411;BME280;56604;48.652;9.194;2023-03-30T14:27:21;95849.38;;;15.66;57.29
69411;BME280;56604;48.652;9.194;2023-03-30T14:29:48;95839.00;;;15.51;58.04
69411;BME280;56604;48.652;9.194;2023-03-30T14:32:16;95836.50;;;15.60;58.35
69411;BME280;56604;48.652;9.194;2023-03-30T14:34:50;95854.06;;;15.56;57.82
69411;BME280;56604;48.652;9.194;2023-03-30T14:37:17;95843.06;;;15.62;58.06
69411;BME280;56604;48.652;9.194;2023-03-30T14:39:45;95838.22;;;15.69;57.40
69411;BME280;56604;48.652;9.194;2023-03-30T14:42:16;95840.13;;;15.83;57.79
69411;BME280;56604;48.652;9.194;2023-03-30T14:44:44;95842.38;;;15.89;57.89
69411;BME280;56604;48.652;9.194;2023-03-30T14:47:11;95841.19;;;15.82;59.24
69411;BME280;56604;48.652;9.194;2023-03-30T14:49:37;95845.91;;;15.71;59.44
69411;BME280;56604;48.652;9.194;2023-03-30T14:52:18;95838.53;;;15.49;58.64
69411;BME280;56604;48.652;9.194;2023-03-30T14:54:44;95826.25;;;15.72;58.72
69411;BME280;56604;48.652;9.194;2023-03-30T14:57:13;95840.81;;;15.56;58.35
69411;BME280;56604;48.652;9.194;2023-03-30T14:59:48;95848.81;;;15.69;58.14
69411;BME280;56604;48.652;9.194;2023-03-30T15:02:20;95849.28;;;15.39;58.80
69411;BME280;56604;48.652;9.194;2023-03-30T15:04:48;95861.13;;;15.60;58.87
69411;BME280;56604;48.652;9.194;2023-03-30T15:07:14;95849.19;;;15.63;58.80
69411;BME280;56604;48.652;9.194;2023-03-30T15:09:42;95867.91;;;15.34;58.81
69411;BME280;56604;48.652;9.194;2023-03-30T15:12:22;95872.66;;;15.18;58.98
69411;BME280;56604;48.652;9.194;2023-03-30T15:14:50;95871.25;;;14.82;59.85
69411;BME280;56604;48.652;9.194;2023-03-30T15:17:20;95855.97;;;14.98;59.58
69411;BME280;56604;48.652;9.194;2023-03-30T15:19:48;95867.34;;;14.99;59.82
69411;BME280;56604;48.652;9.194;2023-03-30T15:22:26;95863.13;;;14.98;59.93
69411;BME280;56604;48.652;9.194;2023-03-30T15:24:55;95870.88;;;14.94;59.57
69411;BME280;56604;48.652;9.194;2023-03-30T15:27:23;95877.69;;;14.76;58.98
69411;BME280;56604;48.652;9.194;2023-03-30T15:29:49;95867.63;;;14.78;59.08